Flatonia, Texas
Current Conditions -  °F | °C
As of 1:35 AM on Saturday 29 Nov 2014 (Local Time) from K3T5 Reporting Station
Clear Clear  
Wind Chill: 58°   Ceiling: Unl
Heat Index: 58°   Visibility: 10mi
Dew Point: 57°   Wind: 7mph
Humidity: 96%   Direction: 200°SSW
Pressure: 30.07"   Gusts: NA
Location:  29.69°N, 97.11°W
Report Text: K3T5 290735Z AUTO 20006KT 10SM CLR 15/14 A3007 RMK AO2 T01470141
Loading
Personal Weather Stations






























Interactive Weather Map New forecast layout! Learn more

10-Day Weather Forecast

Advertisements
Track Severe Weather on mobile